Hanjin Chongqing — 3EPJ2 — position and weather

sailwx.info

Track history (hours):
 
Tides and Currents Weather Stations Pressure Air Temp Water Temp Dewpoint Dewpoint Depression Visibility Wind Speed Wind Dir Waves Ship Positions

Hanjin Chongqing

Last reported at 2014-Oct-18 12:33 UTC. Time now 2014-Oct-20 04:34 UTC.
Position N 22°34' E 114°16'.

Length 304 m; draft 12 m.

Type: Cargo ship. MMSI: 353957976.

Date/timePositionNaut miles runAvg speedWind from/ knotsBaromVisibWave heightAir tempDewpointWater temp
2014-Oct-18 12:33N 22°34' E 114°16'0 0.0
2014-Oct-18 11:11N 22°34' E 114°16'0 0.1
2014-Oct-18 10:05N 22°34' E 114°16'0 0.0
2014-Oct-18 09:29N 22°34' E 114°16'0 0.1
2014-Oct-18 08:29N 22°34' E 114°16'0 0.1
2014-Oct-18 07:29N 22°34' E 114°16'0 0.0
2014-Oct-18 06:29N 22°34' E 114°16'0 0.0
2014-Oct-18 05:29N 22°34' E 114°16'0 0.0
2014-Oct-18 04:29N 22°34' E 114°16'0 0.0
2014-Oct-18 03:29N 22°34' E 114°16'0 0.1
2014-Oct-18 02:29N 22°34' E 114°16'0 0.1
2014-Oct-18 01:29N 22°34' E 114°16'0 0.0
2014-Oct-17 23:29N 22°34' E 114°16'0 0.1
2014-Oct-17 22:23N 22°34' E 114°16'0 0.0
2014-Oct-17 21:23N 22°34' E 114°16'0 0.0
2014-Oct-17 20:11N 22°34' E 114°16'1 1.0
2014-Oct-17 19:33N 22°34' E 114°16'15211.7
2014-Oct-17 06:31N 22°55' E 116°59'6613.2
2014-Oct-17 01:31N 23°32' E 117°59'1313.7
2014-Oct-17 00:33N 23°41' E 118°10'1413.7
2014-Oct-16 23:33N 23°50' E 118°21'1414.0
2014-Oct-16 22:33N 23°59' E 118°33'2713.2
2014-Oct-16 20:32N 24°17' E 118°55'1413.6
2014-Oct-16 19:29N 24°26' E 119°07'1313.9
2014-Oct-16 18:33N 24°35' E 119°17'33213.3
2014-Oct-15 17:31N 29°21' E 122°27'1313.4
2014-Oct-15 16:32N 29°33' E 122°31'1313.2
2014-Oct-15 15:33N 29°43' E 122°22'1110.9
2014-Oct-15 14:33N 29°50' E 122°12'1312.5
2014-Oct-15 13:33N 29°57' E 121°60'7 6.6
2014-Oct-15 12:32N 29°56' E 121°52'0 0.0
2014-Oct-15 11:32N 29°56' E 121°52'0 0.0
2014-Oct-15 09:32N 29°56' E 121°52'0 0.0
2014-Oct-15 08:32N 29°56' E 121°52'0 0.0
2014-Oct-15 07:32N 29°56' E 121°52'0 0.0
2014-Oct-15 06:32N 29°56' E 121°52'0 0.0
2014-Oct-15 05:32N 29°56' E 121°52'0 0.0
2014-Oct-15 04:32N 29°56' E 121°52'0 0.0
2014-Oct-15 03:32N 29°56' E 121°52'0 0.0
2014-Oct-15 02:32N 29°56' E 121°52'0 0.0
2014-Oct-15 01:32N 29°56' E 121°52'0 0.0
2014-Oct-14 18:20N 29°56' E 121°52'0 0.0
2014-Oct-14 17:14N 29°56' E 121°52'0 0.2
2014-Oct-14 16:32N 29°56' E 121°52'7 7.4
2014-Oct-14 15:33N 29°57' E 122°01'1110.7
2014-Oct-14 14:33N 29°51' E 122°11'1110.8
2014-Oct-14 13:33N 29°45' E 122°21'9 8.7
2014-Oct-14 12:33N 29°44' E 122°31'2310.8
2014-Oct-14 10:27N 29°55' E 122°54'  
Track history (hours):
 
Tides and Currents Weather Stations Pressure Air Temp Water Temp Dewpoint Dewpoint Depression Visibility Wind Speed Wind Dir Waves Ship Positions

Hanjin Chongqing

Last reported at 2014-Oct-18 12:33 UTC. Time now 2014-Oct-20 04:34 UTC.
Position N 22°34' E 114°16'.

Length 304 m; draft 12 m.

Type: Cargo ship. MMSI: 353957976.

Date/timePositionNaut miles runAvg speedWind from/ knotsBaromVisibWave heightAir tempDewpointWater temp
2014-Oct-18 12:33N 22°34' E 114°16'0 0.0
2014-Oct-18 11:11N 22°34' E 114°16'0 0.1
2014-Oct-18 10:05N 22°34' E 114°16'0 0.0
2014-Oct-18 09:29N 22°34' E 114°16'0 0.1
2014-Oct-18 08:29N 22°34' E 114°16'0 0.1
2014-Oct-18 07:29N 22°34' E 114°16'0 0.0
2014-Oct-18 06:29N 22°34' E 114°16'0 0.0
2014-Oct-18 05:29N 22°34' E 114°16'0 0.0
2014-Oct-18 04:29N 22°34' E 114°16'0 0.0
2014-Oct-18 03:29N 22°34' E 114°16'0 0.1
2014-Oct-18 02:29N 22°34' E 114°16'0 0.1
2014-Oct-18 01:29N 22°34' E 114°16'0 0.0
2014-Oct-17 23:29N 22°34' E 114°16'0 0.1
2014-Oct-17 22:23N 22°34' E 114°16'0 0.0
2014-Oct-17 21:23N 22°34' E 114°16'0 0.0
2014-Oct-17 20:11N 22°34' E 114°16'1 1.0
2014-Oct-17 19:33N 22°34' E 114°16'15211.7
2014-Oct-17 06:31N 22°55' E 116°59'6613.2
2014-Oct-17 01:31N 23°32' E 117°59'1313.7
2014-Oct-17 00:33N 23°41' E 118°10'1413.7
2014-Oct-16 23:33N 23°50' E 118°21'1414.0
2014-Oct-16 22:33N 23°59' E 118°33'2713.2
2014-Oct-16 20:32N 24°17' E 118°55'1413.6
2014-Oct-16 19:29N 24°26' E 119°07'1313.9
2014-Oct-16 18:33N 24°35' E 119°17'33213.3
2014-Oct-15 17:31N 29°21' E 122°27'1313.4
2014-Oct-15 16:32N 29°33' E 122°31'1313.2
2014-Oct-15 15:33N 29°43' E 122°22'1110.9
2014-Oct-15 14:33N 29°50' E 122°12'1312.5
2014-Oct-15 13:33N 29°57' E 121°60'7 6.6
2014-Oct-15 12:32N 29°56' E 121°52'0 0.0
2014-Oct-15 11:32N 29°56' E 121°52'0 0.0
2014-Oct-15 09:32N 29°56' E 121°52'0 0.0
2014-Oct-15 08:32N 29°56' E 121°52'0 0.0
2014-Oct-15 07:32N 29°56' E 121°52'0 0.0
2014-Oct-15 06:32N 29°56' E 121°52'0 0.0
2014-Oct-15 05:32N 29°56' E 121°52'0 0.0
2014-Oct-15 04:32N 29°56' E 121°52'0 0.0
2014-Oct-15 03:32N 29°56' E 121°52'0 0.0
2014-Oct-15 02:32N 29°56' E 121°52'0 0.0
2014-Oct-15 01:32N 29°56' E 121°52'0 0.0
2014-Oct-14 18:20N 29°56' E 121°52'0 0.0
2014-Oct-14 17:14N 29°56' E 121°52'0 0.2
2014-Oct-14 16:32N 29°56' E 121°52'7 7.4
2014-Oct-14 15:33N 29°57' E 122°01'1110.7
2014-Oct-14 14:33N 29°51' E 122°11'1110.8
2014-Oct-14 13:33N 29°45' E 122°21'9 8.7
2014-Oct-14 12:33N 29°44' E 122°31'2310.8
2014-Oct-14 10:27N 29°55' E 122°54'  

Dump ship's entire track history